createdAt,value
2019-05-12T00:01:58.891Z,6.78
2019-05-12T00:07:06.042Z,6.77
2019-05-12T00:12:11.479Z,6.74
2019-05-12T00:17:18.768Z,6.51
2019-05-12T00:22:25.670Z,6.62
2019-05-12T00:27:31.003Z,6.43
2019-05-12T00:32:38.442Z,6.10
2019-05-12T00:37:43.109Z,6.33
2019-05-12T00:42:51.540Z,6.05
2019-05-12T00:47:59.076Z,6.23
2019-05-12T00:53:04.453Z,6.15
2019-05-12T00:58:10.007Z,6.30
2019-05-12T01:03:18.955Z,6.21
2019-05-12T01:08:28.083Z,6.07
2019-05-12T01:13:34.083Z,6.31
2019-05-12T01:18:39.603Z,6.29
2019-05-12T01:23:56.341Z,6.17
2019-05-12T01:28:51.980Z,6.16
2019-05-12T01:33:58.581Z,6.23
2019-05-12T01:39:08.262Z,6.20
2019-05-12T01:44:14.079Z,6.16
2019-05-12T01:49:19.529Z,6.25
2019-05-12T01:54:24.835Z,6.23
2019-05-12T01:59:31.968Z,6.23
2019-05-12T02:04:58.789Z,6.35
2019-05-12T02:10:05.180Z,6.13
2019-05-12T02:15:10.663Z,6.47
2019-05-12T02:20:18.111Z,6.65
2019-05-12T02:25:23.626Z,6.73
2019-05-12T02:30:30.259Z,6.93
2019-05-12T02:35:36.355Z,6.77
2019-05-12T02:40:44.677Z,6.98
2019-05-12T02:45:48.839Z,7.09
2019-05-12T02:50:54.588Z,7.14
2019-05-12T02:56:04.732Z,7.01
2019-05-12T03:01:09.491Z,6.98
2019-05-12T03:06:15.342Z,6.97
2019-05-12T03:11:21.189Z,7.18
2019-05-12T03:16:27.499Z,7.02
2019-05-12T03:21:35.285Z,7.05
2019-05-12T03:26:39.571Z,7.04
2019-05-12T03:31:48.815Z,7.03
2019-05-12T03:36:58.046Z,6.92
2019-05-12T03:41:59.633Z,7.16
2019-05-12T03:47:08.243Z,7.36
2019-05-12T03:52:15.365Z,7.30
2019-05-12T03:57:20.879Z,7.11
2019-05-12T04:02:26.891Z,7.39
2019-05-12T04:07:34.493Z,7.48
2019-05-12T04:12:40.854Z,7.48
2019-05-12T04:17:46.372Z,7.43
2019-05-12T04:22:54.467Z,7.49
2019-05-12T04:27:58.565Z,7.41
2019-05-12T04:33:04.917Z,7.34
2019-05-12T04:38:10.555Z,7.39
2019-05-12T04:43:15.681Z,7.30
2019-05-12T04:48:21.674Z,7.23
2019-05-12T04:53:28.189Z,7.60
2019-05-12T04:58:35.081Z,7.54
2019-05-12T05:03:40.678Z,7.65
2019-05-12T05:08:45.927Z,7.56
2019-05-12T05:13:51.077Z,7.41
2019-05-12T05:18:56.508Z,7.72
2019-05-12T05:24:03.793Z,7.73
2019-05-12T05:29:08.667Z,7.66
2019-05-12T05:34:15.153Z,7.78
2019-05-12T05:39:20.608Z,7.99
2019-05-12T05:44:29.192Z,7.80
2019-05-12T05:49:34.273Z,7.90
2019-05-12T05:54:40.184Z,7.84
2019-05-12T05:59:45.460Z,8.14
2019-05-12T06:04:54.088Z,8.19
2019-05-12T06:09:58.353Z,8.37
2019-05-12T06:15:04.238Z,8.58
2019-05-12T06:20:09.696Z,8.67
2019-05-12T06:25:16.101Z,8.59
2019-05-12T06:30:24.147Z,8.96
2019-05-12T06:35:30.978Z,8.64
2019-05-12T06:40:40.839Z,9.07
2019-05-12T06:45:45.529Z,8.98
2019-05-12T06:50:50.365Z,8.72
2019-05-12T06:55:55.879Z,8.66
2019-05-12T07:01:10.394Z,8.66
2019-05-12T07:06:17.919Z,9.00
2019-05-12T07:11:19.947Z,9.24
2019-05-12T07:16:29.959Z,9.29
2019-05-12T07:21:33.517Z,9.81
2019-05-12T07:26:39.786Z,10.38
2019-05-12T07:31:45.553Z,10.87
2019-05-12T07:36:54.096Z,10.62
2019-05-12T07:42:03.614Z,10.47
2019-05-12T07:47:09.419Z,10.38
2019-05-12T07:52:15.521Z,11.21
2019-05-12T07:57:21.221Z,10.58
2019-05-12T08:02:31.671Z,10.83
2019-05-12T08:07:34.958Z,10.33
2019-05-12T08:12:40.639Z,10.47
2019-05-12T08:17:49.193Z,11.64
2019-05-12T08:22:59.639Z,11.54
2019-05-12T08:28:14.132Z,11.28
2019-05-12T08:33:10.391Z,11.55
2019-05-12T08:38:15.789Z,11.28
2019-05-12T08:43:24.087Z,11.08
2019-05-12T08:48:29.080Z,11.97
2019-05-12T08:53:34.613Z,11.80
2019-05-12T08:58:48.289Z,11.76
2019-05-12T09:03:48.145Z,12.41
2019-05-12T09:08:55.061Z,12.39
2019-05-12T09:14:03.581Z,13.12
2019-05-12T09:19:15.529Z,13.03
2019-05-12T09:24:21.968Z,12.34
2019-05-12T09:29:25.428Z,12.92
2019-05-12T09:34:33.607Z,12.96
2019-05-12T09:39:42.866Z,12.66
2019-05-12T09:44:45.917Z,13.20
2019-05-12T09:49:53.592Z,13.16
2019-05-12T09:55:00.046Z,12.75
2019-05-12T10:00:06.186Z,12.59
2019-05-12T10:05:14.389Z,13.35
2019-05-12T10:10:21.245Z,13.63
2019-05-12T10:15:30.598Z,13.31
2019-05-12T10:20:39.657Z,12.89
2019-05-12T10:25:44.541Z,13.54
2019-05-12T10:30:55.268Z,13.85
2019-05-12T10:36:06.808Z,14.55
2019-05-12T10:41:13.329Z,14.51
2019-05-12T10:46:23.230Z,14.23
2019-05-12T10:51:25.994Z,14.45
2019-05-12T10:56:38.292Z,13.56
2019-05-12T11:01:48.842Z,14.69
2019-05-12T11:06:54.627Z,14.29
2019-05-12T11:12:00.317Z,14.32
2019-05-12T11:17:10.051Z,14.24
2019-05-12T11:22:15.289Z,14.30
2019-05-12T11:27:23.964Z,14.49
2019-05-12T11:32:33.596Z,15.25
2019-05-12T11:37:36.140Z,15.72
2019-05-12T11:42:46.803Z,15.33
2019-05-12T11:47:49.553Z,15.42
2019-05-12T11:52:55.856Z,15.38
2019-05-12T11:58:06.901Z,15.62
2019-05-12T12:03:12.961Z,14.55
2019-05-12T12:08:18.938Z,14.61
2019-05-12T12:13:29.942Z,15.76
2019-05-12T12:18:34.187Z,15.43
2019-05-12T12:23:41.039Z,15.50
2019-05-12T12:28:49.048Z,15.26
2019-05-12T12:33:54.916Z,15.69
2019-05-12T12:39:04.052Z,15.70
2019-05-12T12:44:13.635Z,15.38
2019-05-12T12:49:19.526Z,15.25
2019-05-12T12:54:24.818Z,15.52
2019-05-12T12:59:33.245Z,15.78
2019-05-12T13:04:45.160Z,15.68
2019-05-12T13:09:47.485Z,15.77
2019-05-12T13:14:53.327Z,15.47
2019-05-12T13:19:59.604Z,15.55
2019-05-12T13:25:08.601Z,16.51
2019-05-12T13:30:21.231Z,15.54
2019-05-12T13:35:24.694Z,15.85
2019-05-12T13:40:37.635Z,15.96
2019-05-12T13:45:39.070Z,15.67
2019-05-12T13:50:46.594Z,16.33
2019-05-12T13:55:53.746Z,15.81
2019-05-12T14:01:13.394Z,16.71
2019-05-12T14:06:07.275Z,16.79
2019-05-12T14:11:12.834Z,15.62
2019-05-12T14:16:18.591Z,16.33
2019-05-12T14:21:25.267Z,16.69
2019-05-12T14:26:30.810Z,16.33
2019-05-12T14:31:45.322Z,15.87
2019-05-12T14:36:43.384Z,16.04
2019-05-12T14:41:52.994Z,16.16
2019-05-12T14:46:57.185Z,16.21
2019-05-12T14:52:03.406Z,15.99
2019-05-12T14:57:13.773Z,16.76
2019-05-12T15:02:24.555Z,16.42
2019-05-12T15:07:26.467Z,16.76
2019-05-12T15:12:33.560Z,16.53
2019-05-12T15:17:39.006Z,16.50
2019-05-12T15:22:51.375Z,16.39
2019-05-12T15:27:51.332Z,16.40
2019-05-12T15:33:00.288Z,16.62
2019-05-12T15:38:09.403Z,16.36
2019-05-12T15:43:13.805Z,15.89
2019-05-12T15:48:20.147Z,16.62
2019-05-12T15:53:27.083Z,16.35
2019-05-12T15:58:33.916Z,16.12
2019-05-12T16:03:39.774Z,16.20
2019-05-12T16:08:47.624Z,15.95
2019-05-12T16:13:59.037Z,16.19
2019-05-12T16:19:00.974Z,15.60
2019-05-12T16:24:11.019Z,15.71
2019-05-12T16:29:13.818Z,15.25
2019-05-12T16:34:19.210Z,15.30
2019-05-12T16:39:30.558Z,15.64
2019-05-12T16:44:34.854Z,15.66
2019-05-12T16:49:44.579Z,15.31
2019-05-12T16:54:54.796Z,15.34
2019-05-12T17:00:06.735Z,15.18
2019-05-12T17:05:15.658Z,15.21
2019-05-12T17:10:18.207Z,15.28
2019-05-12T17:15:24.923Z,15.17
2019-05-12T17:20:33.040Z,14.85
2019-05-12T17:25:42.244Z,15.11
2019-05-12T17:30:50.505Z,14.93
2019-05-12T17:36:02.037Z,15.25
2019-05-12T17:41:04.691Z,15.00
2019-05-12T17:46:17.813Z,14.90
2019-05-12T17:51:23.899Z,15.09
2019-05-12T17:56:33.986Z,15.16
2019-05-12T18:01:37.122Z,14.58
2019-05-12T18:06:44.789Z,14.51
2019-05-12T18:11:52.565Z,14.49
2019-05-12T18:17:08.478Z,14.55
2019-05-12T18:22:09.259Z,14.52
2019-05-12T18:27:15.278Z,14.55
2019-05-12T18:32:20.772Z,14.38
2019-05-12T18:37:28.736Z,14.44
2019-05-12T18:42:34.454Z,14.26
2019-05-12T18:47:44.038Z,14.19
2019-05-12T18:52:50.085Z,13.98
2019-05-12T18:57:57.633Z,13.97
2019-05-12T19:03:08.069Z,13.73
2019-05-12T19:08:10.864Z,13.47
2019-05-12T19:13:16.185Z,13.77
2019-05-12T19:18:24.430Z,13.39
2019-05-12T19:23:35.047Z,13.49
2019-05-12T19:28:44.754Z,13.52
2019-05-12T19:33:53.019Z,13.29
2019-05-12T19:38:54.378Z,13.08
2019-05-12T19:43:59.397Z,13.05
2019-05-12T19:49:04.938Z,12.71
2019-05-12T19:54:10.693Z,12.76
2019-05-12T19:59:16.126Z,12.70
2019-05-12T20:04:33.510Z,12.91
2019-05-12T20:09:31.900Z,12.72
2019-05-12T20:14:40.617Z,12.38
2019-05-12T20:19:45.816Z,12.50
2019-05-12T20:24:53.683Z,12.27
2019-05-12T20:29:59.437Z,12.51
2019-05-12T20:35:04.848Z,12.45
2019-05-12T20:40:10.162Z,12.45
2019-05-12T20:45:25.943Z,12.31
2019-05-12T20:50:34.406Z,12.42
2019-05-12T20:55:41.409Z,12.26
2019-05-12T21:00:50.068Z,12.01
2019-05-12T21:05:58.100Z,12.08
2019-05-12T21:11:02.003Z,12.10
2019-05-12T21:16:16.338Z,12.07
2019-05-12T21:21:14.622Z,12.06
2019-05-12T21:26:21.897Z,11.99
2019-05-12T21:31:30.867Z,11.82
2019-05-12T21:36:34.442Z,11.72
2019-05-12T21:41:40.708Z,11.49
2019-05-12T21:46:57.106Z,11.66
2019-05-12T21:51:58.859Z,11.70
2019-05-12T21:57:00.875Z,11.41
2019-05-12T22:02:06.125Z,11.43
2019-05-12T22:07:11.439Z,11.62
2019-05-12T22:12:23.414Z,11.48
2019-05-12T22:17:27.619Z,11.59
2019-05-12T22:22:33.298Z,11.63
2019-05-12T22:27:38.739Z,11.29
2019-05-12T22:32:43.972Z,11.35
2019-05-12T22:37:49.161Z,11.20
2019-05-12T22:42:59.330Z,10.99
2019-05-12T22:48:04.042Z,11.11
2019-05-12T22:53:08.385Z,11.04
2019-05-12T22:58:20.672Z,11.13
2019-05-12T23:03:20.668Z,11.02
2019-05-12T23:08:25.918Z,10.83
2019-05-12T23:13:32.164Z,10.86
2019-05-12T23:18:38.685Z,10.73
2019-05-12T23:23:44.098Z,10.53
2019-05-12T23:28:50.302Z,10.49
2019-05-12T23:33:56.065Z,10.64
2019-05-12T23:39:02.809Z,10.46
2019-05-12T23:44:08.282Z,10.27
2019-05-12T23:49:14.381Z,10.22
2019-05-12T23:54:20.684Z,10.26
2019-05-12T23:59:25.968Z,10.27
